createdAt,value
2022-12-17T00:00:32.512Z,97.32
2022-12-17T00:03:19.036Z,240.82
2022-12-17T00:06:04.865Z,71.63
2022-12-17T00:08:50.310Z,102.70
2022-12-17T00:11:35.667Z,119.53
2022-12-17T00:14:21.329Z,157.25
2022-12-17T00:17:06.634Z,140.20
2022-12-17T00:19:52.154Z,123.72
2022-12-17T00:22:37.537Z,169.15
2022-12-17T00:25:22.992Z,84.47
2022-12-17T00:28:07.982Z,106.47
2022-12-17T00:30:53.073Z,76.53
2022-12-17T00:33:39.117Z,122.28
2022-12-17T00:36:24.404Z,93.53
2022-12-17T00:39:09.960Z,114.95
2022-12-17T00:41:55.178Z,93.30
2022-12-17T00:44:41.511Z,83.82
2022-12-17T00:47:26.719Z,91.00
2022-12-17T00:50:13.407Z,69.13
2022-12-17T00:52:59.888Z,94.25
2022-12-17T00:55:45.463Z,88.00
2022-12-17T00:58:30.883Z,74.55
2022-12-17T01:01:20.045Z,82.40
2022-12-17T01:04:05.555Z,80.63
2022-12-17T01:06:50.966Z,108.28
2022-12-17T01:09:36.201Z,88.43
2022-12-17T01:12:21.698Z,91.70
2022-12-17T01:15:07.048Z,103.78
2022-12-17T01:17:52.532Z,114.50
2022-12-17T01:20:41.251Z,94.07
2022-12-17T01:23:27.746Z,130.60
2022-12-17T01:26:14.902Z,86.90
2022-12-17T01:29:01.000Z,83.70
2022-12-17T01:31:46.524Z,89.28
2022-12-17T01:34:31.842Z,94.63
2022-12-17T01:37:17.296Z,98.88
2022-12-17T01:40:02.671Z,80.68
2022-12-17T01:43:01.687Z,89.15
2022-12-17T01:45:57.285Z,86.13
2022-12-17T01:48:48.516Z,91.65
2022-12-17T01:51:34.376Z,89.22
2022-12-17T01:54:21.021Z,87.75
2022-12-17T01:57:06.451Z,92.15
2022-12-17T01:59:59.490Z,90.25
2022-12-17T02:02:44.989Z,73.03
2022-12-17T02:05:30.849Z,76.50
2022-12-17T02:08:46.764Z,89.60
2022-12-17T02:11:41.928Z,85.95
2022-12-17T02:14:37.436Z,82.20
2022-12-17T02:17:26.445Z,92.32
2022-12-17T02:20:55.378Z,84.65
2022-12-17T02:24:18.775Z,90.72
2022-12-17T02:27:07.923Z,85.00
2022-12-17T02:29:58.861Z,96.10
2022-12-17T02:32:45.807Z,79.97
2022-12-17T02:35:40.630Z,78.63
2022-12-17T02:38:45.982Z,93.45
2022-12-17T02:41:38.004Z,94.95
2022-12-17T02:44:28.063Z,76.10
2022-12-17T02:47:16.586Z,92.85
2022-12-17T02:50:03.026Z,87.15
2022-12-17T02:52:55.690Z,96.65
2022-12-17T02:55:40.869Z,77.55
2022-12-17T02:58:26.238Z,72.20
2022-12-17T03:01:11.901Z,78.47
2022-12-17T03:03:57.282Z,67.07
2022-12-17T03:06:42.565Z,81.10
2022-12-17T03:09:27.795Z,61.70
2022-12-17T03:12:13.075Z,76.97
2022-12-17T03:14:58.323Z,76.88
2022-12-17T03:17:43.777Z,90.38
2022-12-17T03:20:29.639Z,68.32
2022-12-17T03:23:27.450Z,65.50
2022-12-17T03:26:15.960Z,65.75
2022-12-17T03:29:01.283Z,59.97
2022-12-17T03:31:46.675Z,78.10
2022-12-17T03:34:32.081Z,65.38
2022-12-17T03:37:17.658Z,61.55
2022-12-17T03:40:03.067Z,47.58
2022-12-17T03:42:48.421Z,42.47
2022-12-17T03:45:33.803Z,57.85
2022-12-17T03:48:26.823Z,42.58
2022-12-17T03:51:12.727Z,50.28
2022-12-17T03:53:58.646Z,50.97
2022-12-17T03:56:44.101Z,50.33
2022-12-17T03:59:29.303Z,43.05
2022-12-17T04:02:15.490Z,54.40
2022-12-17T04:05:01.059Z,48.78
2022-12-17T04:07:46.752Z,55.90
2022-12-17T04:10:32.243Z,62.42
2022-12-17T04:13:17.654Z,45.05
2022-12-17T04:16:03.113Z,43.42
2022-12-17T04:18:48.468Z,51.55
2022-12-17T04:21:34.028Z,40.42
2022-12-17T04:24:19.405Z,45.47
2022-12-17T04:27:04.763Z,54.55
2022-12-17T04:29:50.123Z,52.20
2022-12-17T04:32:35.729Z,42.30
2022-12-17T04:35:21.251Z,49.65
2022-12-17T04:38:07.047Z,44.83
2022-12-17T04:40:52.433Z,59.85
2022-12-17T04:43:38.409Z,51.10
2022-12-17T04:46:23.777Z,43.08
2022-12-17T04:49:08.985Z,57.60
2022-12-17T04:52:05.265Z,53.20
2022-12-17T04:54:50.719Z,53.03
2022-12-17T04:57:35.965Z,51.45
2022-12-17T05:00:21.485Z,55.08
2022-12-17T05:03:06.943Z,47.85
2022-12-17T05:05:52.395Z,47.22
2022-12-17T05:08:41.420Z,60.72
2022-12-17T05:11:27.231Z,39.35
2022-12-17T05:14:12.714Z,47.25
2022-12-17T05:16:58.116Z,48.35
2022-12-17T05:19:59.960Z,46.08
2022-12-17T05:22:45.142Z,42.35
2022-12-17T05:25:30.578Z,45.00
2022-12-17T05:28:16.174Z,56.38
2022-12-17T05:31:01.823Z,57.85
2022-12-17T05:33:47.238Z,51.33
2022-12-17T05:36:32.693Z,48.13
2022-12-17T05:39:18.092Z,50.70
2022-12-17T05:42:03.418Z,55.75
2022-12-17T05:44:48.766Z,45.83
2022-12-17T05:47:34.187Z,42.10
2022-12-17T05:50:19.478Z,50.63
2022-12-17T05:53:04.964Z,47.67
2022-12-17T05:55:50.445Z,45.65
2022-12-17T05:58:35.903Z,43.70
2022-12-17T06:01:23.267Z,51.78
2022-12-17T06:04:08.938Z,59.15
2022-12-17T06:06:54.540Z,46.25
2022-12-17T06:09:39.859Z,46.88
2022-12-17T06:12:25.410Z,49.22
2022-12-17T06:15:10.833Z,46.95
2022-12-17T06:17:56.252Z,47.10
2022-12-17T06:20:41.610Z,49.03
2022-12-17T06:23:29.645Z,51.40
2022-12-17T06:26:16.269Z,52.10
2022-12-17T06:29:02.036Z,62.60
2022-12-17T06:31:47.523Z,57.50
2022-12-17T06:34:32.931Z,68.25
2022-12-17T06:37:18.284Z,49.78
2022-12-17T06:40:03.839Z,63.90
2022-12-17T06:42:49.499Z,51.53
2022-12-17T06:45:35.049Z,63.72
2022-12-17T06:48:21.701Z,57.35
2022-12-17T06:51:07.066Z,59.03
2022-12-17T06:53:52.423Z,60.50
2022-12-17T06:56:37.813Z,50.75
2022-12-17T06:59:23.211Z,48.78
2022-12-17T07:02:08.714Z,47.35
2022-12-17T07:04:53.999Z,44.45
2022-12-17T07:07:39.456Z,45.88
2022-12-17T07:10:25.202Z,47.72
2022-12-17T07:13:10.633Z,52.50
2022-12-17T07:15:56.183Z,56.58
2022-12-17T07:18:41.713Z,44.92
2022-12-17T07:21:27.237Z,43.05
2022-12-17T07:24:12.584Z,43.55
2022-12-17T07:26:57.999Z,32.13
2022-12-17T07:29:43.442Z,43.20
2022-12-17T07:32:28.766Z,63.60
2022-12-17T07:35:14.286Z,39.55
2022-12-17T07:37:59.610Z,28.15
2022-12-17T07:40:45.242Z,39.92
2022-12-17T07:43:31.975Z,35.35
2022-12-17T07:46:17.310Z,38.45
2022-12-17T07:49:02.661Z,37.65
2022-12-17T07:51:47.994Z,45.38
2022-12-17T07:54:33.517Z,33.42
2022-12-17T07:57:18.831Z,36.58
2022-12-17T08:00:04.452Z,37.17
2022-12-17T08:02:50.362Z,38.80
2022-12-17T08:05:36.081Z,44.78
2022-12-17T08:08:28.310Z,40.55
2022-12-17T08:11:13.763Z,41.60
2022-12-17T08:13:59.108Z,36.65
2022-12-17T08:16:44.739Z,47.05
2022-12-17T08:19:29.950Z,32.17
2022-12-17T08:22:15.440Z,37.33
2022-12-17T08:25:00.822Z,32.75
2022-12-17T08:27:46.090Z,43.40
2022-12-17T08:30:31.520Z,30.63
2022-12-17T08:33:21.888Z,38.53
2022-12-17T08:36:11.883Z,33.35
2022-12-17T08:38:57.685Z,32.55
2022-12-17T08:41:43.147Z,30.10
2022-12-17T08:44:42.261Z,35.42
2022-12-17T08:47:27.658Z,38.58
2022-12-17T08:50:12.905Z,41.05
2022-12-17T08:52:58.306Z,37.08
2022-12-17T08:55:43.962Z,38.35
2022-12-17T08:58:29.263Z,31.85
2022-12-17T09:01:17.400Z,35.90
2022-12-17T09:04:04.653Z,37.75
2022-12-17T09:06:50.352Z,34.40
2022-12-17T09:09:35.722Z,34.90
2022-12-17T09:12:20.866Z,40.15
2022-12-17T09:15:06.224Z,32.65
2022-12-17T09:17:51.559Z,36.20
2022-12-17T09:20:36.879Z,32.17
2022-12-17T09:23:22.275Z,34.60
2022-12-17T09:26:16.180Z,39.65
2022-12-17T09:29:01.463Z,37.03
2022-12-17T09:31:46.906Z,29.63
2022-12-17T09:34:32.346Z,41.42
2022-12-17T09:37:17.766Z,35.70
2022-12-17T09:40:03.330Z,31.23
2022-12-17T09:43:00.125Z,34.90
2022-12-17T09:45:56.271Z,36.08
2022-12-17T09:48:59.196Z,32.35
2022-12-17T09:51:47.651Z,33.80
2022-12-17T09:55:01.916Z,34.15
2022-12-17T09:57:51.745Z,35.67
2022-12-17T10:00:40.758Z,26.30
2022-12-17T10:03:40.525Z,29.25
2022-12-17T10:06:37.387Z,27.85
2022-12-17T10:09:33.537Z,27.88
2022-12-17T10:12:28.319Z,24.27
2022-12-17T10:15:13.759Z,29.20
2022-12-17T10:17:59.227Z,25.90
2022-12-17T10:20:57.206Z,26.58
2022-12-17T10:23:47.418Z,30.50
2022-12-17T10:26:43.943Z,27.83
2022-12-17T10:29:30.950Z,26.25
2022-12-17T10:32:42.295Z,30.15
2022-12-17T10:35:37.974Z,29.58
2022-12-17T10:38:42.192Z,29.23
2022-12-17T10:41:43.264Z,34.28
2022-12-17T10:44:49.843Z,38.80
2022-12-17T10:47:37.797Z,27.73
2022-12-17T10:50:38.418Z,31.05
2022-12-17T10:53:36.542Z,25.88
2022-12-17T10:56:22.951Z,26.30
2022-12-17T10:59:10.817Z,25.40
2022-12-17T11:01:58.339Z,27.55
2022-12-17T11:04:48.011Z,24.00
2022-12-17T11:07:55.583Z,23.30
2022-12-17T11:10:42.903Z,17.95
2022-12-17T11:13:34.265Z,25.85
2022-12-17T11:16:21.888Z,30.33
2022-12-17T11:19:17.313Z,23.48
2022-12-17T11:22:08.106Z,28.27
2022-12-17T11:25:26.408Z,20.23
2022-12-17T11:28:23.443Z,24.52
2022-12-17T11:31:36.930Z,23.92
2022-12-17T11:34:48.163Z,27.73
2022-12-17T11:37:33.489Z,23.20
2022-12-17T11:40:55.151Z,27.98
2022-12-17T11:43:45.584Z,28.67
2022-12-17T11:46:39.749Z,25.27
2022-12-17T11:49:49.984Z,24.75
2022-12-17T11:53:06.167Z,28.23
2022-12-17T11:56:09.567Z,23.73
2022-12-17T11:59:00.835Z,26.73
2022-12-17T12:01:48.581Z,23.95
2022-12-17T12:04:46.689Z,28.73
2022-12-17T12:07:42.659Z,21.50
2022-12-17T12:10:39.522Z,25.17
2022-12-17T12:13:52.759Z,29.70
2022-12-17T12:16:44.841Z,25.83
2022-12-17T12:19:54.672Z,21.52
2022-12-17T12:22:51.415Z,26.85
2022-12-17T12:26:15.479Z,26.55
2022-12-17T12:29:11.421Z,27.17
2022-12-17T12:32:02.553Z,25.70
2022-12-17T12:34:55.650Z,25.23
2022-12-17T12:37:41.955Z,20.40
2022-12-17T12:40:52.875Z,24.05
2022-12-17T12:43:46.906Z,23.63
2022-12-17T12:46:39.992Z,23.73
2022-12-17T12:50:01.159Z,29.13
2022-12-17T12:52:46.657Z,22.80
2022-12-17T12:55:32.206Z,23.27
2022-12-17T12:58:24.298Z,27.17
2022-12-17T13:01:10.616Z,42.83
2022-12-17T13:04:16.211Z,28.27
2022-12-17T13:06:54.313Z,25.95
2022-12-17T13:09:33.831Z,27.27
2022-12-17T13:12:04.116Z,24.90
2022-12-17T13:14:42.348Z,25.40
2022-12-17T13:17:24.242Z,28.83
2022-12-17T13:19:56.832Z,28.05
2022-12-17T13:22:24.519Z,26.33
2022-12-17T13:24:54.259Z,26.13
2022-12-17T13:27:38.694Z,27.83
2022-12-17T13:30:35.177Z,27.17
2022-12-17T13:33:26.933Z,23.50
2022-12-17T13:36:14.642Z,22.00
2022-12-17T13:39:05.586Z,25.20
2022-12-17T13:41:34.499Z,25.52
2022-12-17T13:44:27.235Z,24.67
2022-12-17T13:46:55.091Z,25.15
2022-12-17T13:49:27.374Z,28.13
2022-12-17T13:52:11.838Z,27.50
2022-12-17T13:54:38.853Z,24.35
2022-12-17T13:57:27.631Z,24.85
2022-12-17T13:59:56.489Z,30.23
2022-12-17T14:02:34.358Z,26.42
2022-12-17T14:05:07.750Z,20.50
2022-12-17T14:07:38.300Z,24.75
2022-12-17T14:10:13.742Z,27.63
2022-12-17T14:12:40.428Z,25.50
2022-12-17T14:15:31.801Z,23.08
2022-12-17T14:17:59.417Z,29.63
2022-12-17T14:20:33.910Z,28.02
2022-12-17T14:23:06.345Z,24.58
2022-12-17T14:25:38.918Z,24.38
2022-12-17T14:28:20.524Z,24.20
2022-12-17T14:31:17.733Z,25.20
2022-12-17T14:33:36.795Z,21.08
2022-12-17T14:36:07.084Z,25.88
2022-12-17T14:38:38.932Z,23.98
2022-12-17T14:41:30.802Z,19.27
2022-12-17T14:44:01.746Z,25.65
2022-12-17T14:46:30.224Z,27.15
2022-12-17T14:49:01.839Z,24.70
2022-12-17T14:51:32.692Z,27.65
2022-12-17T14:54:18.137Z,26.15
2022-12-17T14:56:47.297Z,24.02
2022-12-17T14:59:33.605Z,27.25
2022-12-17T15:02:03.999Z,24.85
2022-12-17T15:04:32.333Z,23.15
2022-12-17T15:06:59.310Z,21.52
2022-12-17T15:09:25.949Z,25.77
2022-12-17T15:11:52.688Z,24.23
2022-12-17T15:14:19.324Z,16.98
2022-12-17T15:16:46.332Z,24.48
2022-12-17T15:19:12.997Z,26.30
2022-12-17T15:21:39.772Z,23.48
2022-12-17T15:24:10.637Z,21.55
2022-12-17T15:26:37.232Z,23.70
2022-12-17T15:29:03.836Z,24.92
2022-12-17T15:31:35.231Z,37.90
2022-12-17T15:34:02.415Z,33.83
2022-12-17T15:36:31.707Z,23.20
2022-12-17T15:38:58.899Z,28.63
2022-12-17T15:41:44.146Z,20.77
2022-12-17T15:44:12.135Z,24.92
2022-12-17T15:46:39.579Z,20.52
2022-12-17T15:49:06.494Z,18.58
2022-12-17T15:51:33.090Z,20.40
2022-12-17T15:53:59.704Z,27.77
2022-12-17T15:56:28.263Z,24.38
2022-12-17T15:58:58.606Z,24.60
2022-12-17T16:01:25.735Z,23.48
2022-12-17T16:03:52.597Z,20.25
2022-12-17T16:06:19.331Z,19.48
2022-12-17T16:08:45.975Z,18.92
2022-12-17T16:11:14.255Z,19.15
2022-12-17T16:13:40.955Z,23.40
2022-12-17T16:16:08.664Z,22.83
2022-12-17T16:18:36.625Z,22.17
2022-12-17T16:21:05.368Z,23.80
2022-12-17T16:23:32.293Z,24.23
2022-12-17T16:26:01.326Z,21.65
2022-12-17T16:28:28.411Z,28.38
2022-12-17T16:31:02.139Z,21.30
2022-12-17T16:33:35.689Z,26.83
2022-12-17T16:36:03.414Z,21.35
2022-12-17T16:38:30.192Z,23.90
2022-12-17T16:40:57.884Z,19.40
2022-12-17T16:43:25.892Z,22.27
2022-12-17T16:45:53.362Z,20.92
2022-12-17T16:48:22.057Z,24.10
2022-12-17T16:50:49.696Z,24.50
2022-12-17T16:53:17.010Z,22.02
2022-12-17T16:55:48.291Z,22.45
2022-12-17T16:58:16.702Z,22.75
2022-12-17T17:00:45.057Z,19.98
2022-12-17T17:03:11.989Z,26.25
2022-12-17T17:05:40.277Z,23.80
2022-12-17T17:08:07.307Z,25.35
2022-12-17T17:10:36.680Z,21.63
2022-12-17T17:13:03.953Z,26.05
2022-12-17T17:15:30.804Z,21.58
2022-12-17T17:18:01.402Z,21.33
2022-12-17T17:20:31.972Z,23.77
2022-12-17T17:22:58.676Z,21.05
2022-12-17T17:25:38.536Z,24.88
2022-12-17T17:28:11.951Z,24.25
2022-12-17T17:30:38.822Z,24.65
2022-12-17T17:33:05.435Z,23.63
2022-12-17T17:35:32.107Z,23.92
2022-12-17T17:37:58.683Z,30.10
2022-12-17T17:40:25.843Z,24.45
2022-12-17T17:42:53.245Z,25.15
2022-12-17T17:45:20.125Z,25.60
2022-12-17T17:47:46.824Z,19.80
2022-12-17T17:50:13.420Z,29.70
2022-12-17T17:52:40.061Z,28.02
2022-12-17T17:55:07.286Z,26.17
2022-12-17T17:57:33.908Z,25.23
2022-12-17T18:00:00.539Z,23.85
2022-12-17T18:02:27.733Z,24.75
2022-12-17T18:04:54.483Z,19.35
2022-12-17T18:07:26.119Z,25.73
2022-12-17T18:09:53.985Z,24.73
2022-12-17T18:12:39.471Z,25.52
2022-12-17T18:15:15.816Z,23.42
2022-12-17T18:17:45.192Z,20.23
2022-12-17T18:20:12.241Z,24.20
2022-12-17T18:22:38.930Z,23.08
2022-12-17T18:25:05.775Z,26.20
2022-12-17T18:27:33.232Z,22.45
2022-12-17T18:30:00.031Z,21.67
2022-12-17T18:32:26.702Z,20.95
2022-12-17T18:34:53.384Z,21.20
2022-12-17T18:37:20.088Z,22.58
2022-12-17T18:39:47.283Z,18.05
2022-12-17T18:42:32.746Z,25.40
2022-12-17T18:44:59.698Z,21.95
2022-12-17T18:47:26.306Z,24.60
2022-12-17T18:49:53.015Z,21.20
2022-12-17T18:52:19.798Z,23.30
2022-12-17T18:54:46.513Z,19.50
2022-12-17T18:57:13.555Z,22.90
2022-12-17T18:59:40.725Z,19.90
2022-12-17T19:02:11.613Z,18.30
2022-12-17T19:04:38.350Z,21.17
2022-12-17T19:07:05.288Z,22.60
2022-12-17T19:09:36.099Z,19.33
2022-12-17T19:12:05.193Z,21.80
2022-12-17T19:14:31.869Z,18.85
2022-12-17T19:16:59.768Z,21.80
2022-12-17T19:19:26.607Z,20.08
2022-12-17T19:21:59.867Z,22.77
2022-12-17T19:24:27.027Z,23.27
2022-12-17T19:26:54.074Z,23.05
2022-12-17T19:29:21.524Z,20.60
2022-12-17T19:31:49.019Z,28.27
2022-12-17T19:34:17.417Z,21.65
2022-12-17T19:36:44.923Z,21.73
2022-12-17T19:39:17.282Z,17.38
2022-12-17T19:41:44.244Z,16.40
2022-12-17T19:44:13.920Z,25.00
2022-12-17T19:46:41.607Z,15.25
2022-12-17T19:49:10.649Z,21.88
2022-12-17T19:51:39.486Z,18.80
2022-12-17T19:54:09.250Z,18.50
2022-12-17T19:56:36.414Z,21.85
2022-12-17T19:59:07.020Z,20.75
2022-12-17T20:01:36.799Z,21.27
2022-12-17T20:04:04.718Z,19.70
2022-12-17T20:06:33.846Z,20.42
2022-12-17T20:09:02.015Z,19.30
2022-12-17T20:11:35.061Z,19.23
2022-12-17T20:14:10.377Z,18.77
2022-12-17T20:16:42.500Z,19.50
2022-12-17T20:19:15.933Z,22.63
2022-12-17T20:21:42.988Z,23.00
2022-12-17T20:24:10.443Z,22.30
2022-12-17T20:26:38.023Z,18.52
2022-12-17T20:29:05.403Z,25.23
2022-12-17T20:31:32.880Z,23.33
2022-12-17T20:34:06.889Z,21.17
2022-12-17T20:36:33.820Z,25.35
2022-12-17T20:39:00.979Z,22.42
2022-12-17T20:41:29.681Z,20.42
2022-12-17T20:43:56.864Z,21.75
2022-12-17T20:46:25.273Z,19.45
2022-12-17T20:48:52.236Z,18.67
2022-12-17T20:51:23.265Z,19.13
2022-12-17T20:53:50.701Z,18.90
2022-12-17T20:56:21.054Z,17.95
2022-12-17T20:58:51.503Z,18.85
2022-12-17T21:01:20.778Z,23.20
2022-12-17T21:03:49.796Z,21.98
2022-12-17T21:06:19.413Z,18.00
2022-12-17T21:08:50.966Z,19.00
2022-12-17T21:11:24.239Z,24.55
2022-12-17T21:13:51.768Z,18.48
2022-12-17T21:16:27.442Z,20.85
2022-12-17T21:18:55.400Z,16.20
2022-12-17T21:21:25.326Z,16.90
2022-12-17T21:23:52.058Z,19.33
2022-12-17T21:26:26.866Z,17.80
2022-12-17T21:28:56.280Z,13.43
2022-12-17T21:31:32.657Z,14.25
2022-12-17T21:34:02.210Z,24.75
2022-12-17T21:36:31.254Z,16.20
2022-12-17T21:38:58.725Z,18.25
2022-12-17T21:41:28.688Z,14.77
2022-12-17T21:43:57.579Z,15.70
2022-12-17T21:46:26.875Z,12.40
2022-12-17T21:48:54.870Z,13.70
2022-12-17T21:51:21.973Z,16.75
2022-12-17T21:53:56.467Z,19.42
2022-12-17T21:56:24.027Z,11.95
2022-12-17T21:58:56.469Z,14.80
2022-12-17T22:01:25.704Z,15.65
2022-12-17T22:03:54.646Z,15.02
2022-12-17T22:06:26.298Z,15.25
2022-12-17T22:09:01.492Z,15.00
2022-12-17T22:11:43.466Z,17.10
2022-12-17T22:14:18.798Z,13.20
2022-12-17T22:16:49.178Z,14.40
2022-12-17T22:19:22.328Z,16.02
2022-12-17T22:21:50.410Z,19.73
2022-12-17T22:24:19.691Z,19.48
2022-12-17T22:26:46.833Z,11.13
2022-12-17T22:29:34.283Z,12.88
2022-12-17T22:32:19.506Z,12.45
2022-12-17T22:35:16.269Z,13.23
2022-12-17T22:39:41.066Z,15.68
2022-12-17T22:44:29.316Z,12.77
2022-12-17T22:44:43.119Z,13.77
2022-12-17T22:46:16.219Z,15.77
2022-12-17T22:48:42.839Z,16.27
2022-12-17T22:51:12.570Z,17.52
2022-12-17T22:53:41.729Z,15.52
2022-12-17T22:56:26.792Z,13.77
2022-12-17T22:58:56.579Z,12.90
2022-12-17T23:01:23.578Z,11.25
2022-12-17T23:03:53.959Z,13.32
2022-12-17T23:06:21.020Z,15.63
2022-12-17T23:08:47.626Z,14.00
2022-12-17T23:11:21.412Z,15.30
2022-12-17T23:13:48.148Z,14.50
2022-12-17T23:16:15.959Z,12.38
2022-12-17T23:18:44.095Z,13.80
2022-12-17T23:21:15.396Z,16.15
2022-12-17T23:23:42.602Z,13.55
2022-12-17T23:26:15.804Z,10.88
2022-12-17T23:28:42.946Z,13.57
2022-12-17T23:31:11.702Z,11.57
2022-12-17T23:33:38.817Z,12.57
2022-12-17T23:36:19.750Z,10.18
2022-12-17T23:38:47.507Z,9.63
2022-12-17T23:41:16.397Z,14.00
2022-12-17T23:43:43.515Z,13.20
2022-12-17T23:46:10.965Z,12.95
2022-12-17T23:48:45.110Z,11.73
2022-12-17T23:51:13.997Z,13.50
2022-12-17T23:53:41.778Z,13.55
2022-12-17T23:56:11.791Z,10.88
2022-12-17T23:58:40.084Z,12.32
